KGEZ

Details ICAO KGEZ
Name Shelbyville Muni
Region United States
Timezone America/Indiana/Indianapolis (UTC-4.0)
Plans Departing 2
Arriving 7
Stats Elevation 804 ft / 245 m (AMSL)
Location 39.580827° -85.804868°
Runways 2
Magnetic Variation 5.002° W
Sunrise 2018-05-24 10:23:26 UTC / 2018-05-24 06:23:26 Local
Sunset 2018-05-25 00:59:36 UTC / 2018-05-24 20:59:36 Local
Advertisement - Login to hide

Runways

ID Width Length Bearing (true) Bearing (mag) Surface Threshold Offset Overrun Length
01 100 ft / 30 m 5,005 ft / 1,525 m 6.00° 11.00° Asphalt 0 ft / 0 m 0 ft / 0 m
09 190 ft / 58 m 2,673 ft / 815 m 90.00° 95.00° Grass 460 ft / 140 m 0 ft / 0 m
19 100 ft / 30 m 5,005 ft / 1,525 m 186.00° 191.00° Asphalt 0 ft / 0 m 0 ft / 0 m
27 190 ft / 58 m 2,673 ft / 815 m 270.00° 275.00° Grass 310 ft / 94 m 0 ft / 0 m

Map

Weather


0- 5 10 15 20 25 30 35+ Temperature / ° C

Clouds and Precipitation
Forecast for 2018-05-24 06:00 UTC. Updated 3 hours ago

Ground ~20,000 ft ~40,000 ft Winds

METAR

KGEZ 240753Z AUTO 08006KT 10SM CLR 16/12 A3016 RMK AO2 SLP208 T01610117

TAF

Not found

Frequencies

Recorded 121.55 MHz ASOS
Approach 127.15 MHz INDIANAPOLIS APP/DEP
Unicom 122.80 MHz CTAF/UNICOM
Warning: Do not use this data for real-world aviation or navigation. No guarantee of current accuracy is given.